Time;durP1;ratioP1;P1;durP2;ratioP2;P2;SDS_P1;SDS_P2;PMS_P1;PMS_P2;Temp;Humidity;BMP_temperature;BMP_pressure;BME280_temperature;BME280_humidity;BME280_pressure;Samples;Min_cycle;Max_cycle;Signal;HPM_P1;HPM_P2
2022/07/28 00:00:42;;;;;;;8.10;7.40;;;;;;;15.45;100.00;99437.59;5051886;28;20237;-76
2022/07/28 00:03:09;;;;;;;7.83;7.23;;;;;;;15.42;100.00;99444.31;5044424;28;20760;-76
2022/07/28 00:05:36;;;;;;;8.27;7.60;;;;;;;15.42;100.00;99446.19;5051796;28;20316;-76
2022/07/28 00:08:03;;;;;;;8.40;7.57;;;;;;;15.40;100.00;99434.84;5048927;28;20236;-75
2022/07/28 00:10:31;;;;;;;8.17;7.57;;;;;;;15.38;100.00;99432.41;5051028;28;20225;-77
2022/07/28 00:12:58;;;;;;;7.83;7.23;;;;;;;15.38;100.00;99437.81;5050331;28;20224;-76
2022/07/28 00:15:26;;;;;;;8.17;7.47;;;;;;;15.34;100.00;99431.28;5046060;28;20226;-76
2022/07/28 00:17:52;;;;;;;7.60;6.97;;;;;;;15.33;100.00;99431.53;5052287;28;20227;-77
2022/07/28 00:20:19;;;;;;;8.13;7.43;;;;;;;15.25;100.00;99413.13;5050260;28;20594;-76
2022/07/28 00:22:46;;;;;;;8.23;7.53;;;;;;;15.25;100.00;99427.44;5051588;28;20245;-76
2022/07/28 00:25:14;;;;;;;8.13;7.63;;;;;;;15.26;100.00;99422.81;5050758;28;20225;-77
2022/07/28 00:27:41;;;;;;;7.93;7.37;;;;;;;15.26;100.00;99426.34;5051703;28;20328;-77
2022/07/28 00:30:08;;;;;;;8.30;7.70;;;;;;;15.23;100.00;99416.06;5051291;28;20225;-76
2022/07/28 00:32:36;;;;;;;8.30;7.60;;;;;;;15.25;100.00;99416.63;5050589;28;20228;-77
2022/07/28 00:35:03;;;;;;;8.80;7.47;;;;;;;15.22;100.00;99417.13;5050709;28;20734;-78
2022/07/28 00:37:33;;;;;;;8.80;8.10;;;;;;;15.20;100.00;99413.88;5050358;28;20233;-77
2022/07/28 00:40:00;;;;;;;9.17;8.20;;;;;;;15.22;100.00;99413.59;5050337;28;20226;-77
2022/07/28 00:42:26;;;;;;;8.70;8.00;;;;;;;15.21;100.00;99417.41;5050835;28;20232;-77
2022/07/28 00:44:53;;;;;;;8.27;7.50;;;;;;;15.20;100.00;99410.38;5050384;28;20320;-78
2022/07/28 00:47:20;;;;;;;8.57;7.77;;;;;;;15.15;100.00;99411.13;5048826;28;20600;-78
2022/07/28 00:49:47;;;;;;;8.43;7.73;;;;;;;15.13;100.00;99409.72;5050023;28;20230;-76
2022/07/28 00:52:15;;;;;;;8.07;7.30;;;;;;;15.09;100.00;99400.53;5050422;28;20228;-77
2022/07/28 00:54:43;;;;;;;8.40;7.70;;;;;;;15.08;100.00;99407.81;5050500;28;20225;-77
2022/07/28 00:57:09;;;;;;;8.77;8.07;;;;;;;15.06;100.00;99403.75;5051220;28;20324;-77
2022/07/28 00:59:36;;;;;;;8.40;7.67;;;;;;;15.07;100.00;99416.16;5051263;28;20324;-77
2022/07/28 01:02:03;;;;;;;8.97;8.23;;;;;;;15.04;100.00;99409.38;5050692;28;20232;-77
2022/07/28 01:04:30;;;;;;;8.83;8.13;;;;;;;15.02;100.00;99411.53;5050926;28;20628;-77
2022/07/28 01:07:07;;;;;;;8.70;8.10;;;;;;;15.00;100.00;99424.44;5048732;28;20328;-77
2022/07/28 01:09:55;;;;;;;8.07;7.47;;;;;;;14.99;100.00;99425.50;5048447;28;20704;-79
2022/07/28 01:12:31;;;;;;;8.50;7.90;;;;;;;14.96;100.00;99428.72;5047787;28;20233;-77
2022/07/28 01:15:22;;;;;;;7.87;7.27;;;;;;;14.90;100.00;99422.44;5051186;28;20239;-77
2022/07/28 01:18:04;;;;;;;8.70;8.00;;;;;;;14.88;100.00;99426.47;5050745;28;20250;-77
2022/07/28 01:20:36;;;;;;;7.90;7.30;;;;;;;14.84;100.00;99419.94;5041461;28;20235;-77
2022/07/28 01:23:04;;;;;;;8.03;7.40;;;;;;;14.80;100.00;99424.19;5051235;28;20292;-77
2022/07/28 01:26:08;;;;;;;8.40;7.70;;;;;;;14.79;100.00;99415.28;5050640;28;20226;-77
2022/07/28 01:28:59;;;;;;;8.50;7.70;;;;;;;14.77;100.00;99425.53;5029420;28;20684;-77
2022/07/28 01:31:31;;;;;;;8.47;7.77;;;;;;;14.77;100.00;99424.72;5030548;28;20284;-77
2022/07/28 01:33:59;;;;;;;8.60;7.90;;;;;;;14.74;100.00;99428.75;5031121;28;20234;-78
2022/07/28 01:36:37;;;;;;;8.17;7.47;;;;;;;14.69;100.00;99412.50;5028623;28;20708;-76
2022/07/28 01:39:04;;;;;;;8.80;8.00;;;;;;;14.69;100.00;99415.19;5028345;28;20221;-77
2022/07/28 01:41:32;;;;;;;8.27;7.67;;;;;;;14.67;100.00;99413.81;5029170;28;20248;-76
2022/07/28 01:44:02;;;;;;;8.57;7.87;;;;;;;14.64;100.00;99422.41;5029494;28;20499;-77
2022/07/28 01:46:29;;;;;;;9.00;8.20;;;;;;;14.60;100.00;99415.88;5053864;28;20620;-80
2022/07/28 01:48:56;;;;;;;8.47;7.80;;;;;;;14.60;100.00;99415.88;5049221;28;20226;-76
2022/07/28 01:51:26;;;;;;;8.60;7.90;;;;;;;14.59;100.00;99415.06;5054678;28;20240;-76
2022/07/28 01:53:55;;;;;;;8.20;7.50;;;;;;;14.50;100.00;99417.41;5051049;28;20699;-76
2022/07/28 01:56:22;;;;;;;8.07;7.37;;;;;;;14.47;100.00;99423.25;5050118;28;20879;-77
2022/07/28 01:58:50;;;;;;;8.20;7.60;;;;;;;14.44;100.00;99414.88;5055290;28;20312;-78
2022/07/28 02:01:18;;;;;;;8.50;7.90;;;;;;;14.40;100.00;99422.66;5047756;28;20251;-78
2022/07/28 02:03:46;;;;;;;8.00;7.40;;;;;;;14.38;100.00;99413.97;5048447;28;20308;-77
2022/07/28 02:06:14;;;;;;;8.30;7.50;;;;;;;14.37;100.00;99415.03;5055467;28;20229;-76
2022/07/28 02:08:41;;;;;;;8.70;8.00;;;;;;;14.35;100.00;99414.47;5046997;28;20707;-76
2022/07/28 02:13:53;;;;;;;8.03;7.30;;;;;;;14.32;100.00;99419.53;5051511;28;20257;-76
2022/07/28 02:16:22;;;;;;;7.97;7.37;;;;;;;14.30;100.00;99418.97;5057601;28;20725;-77
2022/07/28 02:18:50;;;;;;;8.63;7.73;;;;;;;14.26;100.00;99407.88;5058288;28;20704;-77
2022/07/28 02:21:19;;;;;;;8.50;7.80;;;;;;;14.28;100.00;99424.59;5053577;28;20240;-77
2022/07/28 02:23:47;;;;;;;9.33;8.53;;;;;;;14.27;100.00;99425.66;5057813;28;20229;-77
2022/07/28 02:26:16;;;;;;;9.00;8.20;;;;;;;14.26;100.00;99418.66;5057560;28;20655;-76
2022/07/28 02:28:45;;;;;;;8.27;7.67;;;;;;;14.23;100.00;99407.56;5050978;28;20324;-76
2022/07/28 02:31:18;;;;;;;7.70;7.10;;;;;;;14.21;100.00;99412.38;5051522;28;20233;-76
2022/07/28 02:33:46;;;;;;;8.33;7.67;;;;;;;14.21;100.00;99413.19;5066614;28;20643;-77
2022/07/28 02:36:30;;;;;;;8.90;8.20;;;;;;;14.20;100.00;99406.16;5046604;28;20286;-77
2022/07/28 02:39:02;;;;;;;8.40;7.60;;;;;;;14.11;100.00;99407.66;5035768;28;20308;-77
2022/07/28 02:41:31;;;;;;;8.50;7.70;;;;;;;14.09;100.00;99413.28;5037256;28;20253;-77
2022/07/28 02:44:00;;;;;;;8.30;7.60;;;;;;;14.05;100.00;99414.00;5036367;28;20288;-76
2022/07/28 02:46:34;;;;;;;9.10;8.27;;;;;;;14.02;100.00;99409.94;5048616;28;20243;-77
2022/07/28 02:49:05;;;;;;;8.73;7.97;;;;;;;14.01;100.00;99415.56;5046346;28;20252;-76
2022/07/28 02:51:32;;;;;;;8.40;7.73;;;;;;;13.98;100.00;99416.91;5064901;28;20327;-77
2022/07/28 02:54:00;;;;;;;9.10;8.40;;;;;;;13.97;100.00;99414.44;5051667;28;20240;-77
2022/07/28 02:56:28;;;;;;;8.17;7.57;;;;;;;13.94;100.00;99425.72;5055288;28;20232;-77
2022/07/28 02:58:55;;;;;;;8.67;7.97;;;;;;;13.90;100.00;99417.31;5048740;28;20244;-77
2022/07/28 03:01:22;;;;;;;8.20;7.50;;;;;;;13.91;100.00;99423.50;5050123;28;20324;-77
2022/07/28 03:03:49;;;;;;;8.87;8.13;;;;;;;13.92;100.00;99430.53;5051415;28;20692;-77
2022/07/28 03:06:22;;;;;;;8.70;8.00;;;;;;;13.87;100.00;99430.44;5048431;28;20719;-76
2022/07/28 03:08:55;;;;;;;8.30;7.60;;;;;;;13.85;100.00;99424.50;5053474;28;20253;-76
2022/07/28 03:11:22;;;;;;;8.50;7.80;;;;;;;13.87;100.00;99427.75;5046193;28;20240;-77
2022/07/28 03:13:48;;;;;;;9.13;8.33;;;;;;;13.85;100.00;99427.19;5038503;28;20229;-76
2022/07/28 03:16:15;;;;;;;8.83;8.13;;;;;;;13.85;100.00;99433.41;5048911;28;20234;-77
2022/07/28 03:18:42;;;;;;;8.80;7.80;;;;;;;13.82;100.00;99433.06;5042969;28;20217;-77
2022/07/28 03:21:08;;;;;;;8.73;7.93;;;;;;;13.81;100.00;99436.81;5047952;28;20241;-76
2022/07/28 03:23:42;;;;;;;8.93;8.33;;;;;;;13.80;100.00;99437.88;5046951;28;20291;-77
2022/07/28 03:26:40;;;;;;;9.07;8.27;;;;;;;13.80;100.00;99441.41;5046994;28;20644;-77
2022/07/28 03:29:08;;;;;;;8.60;8.00;;;;;;;13.82;100.00;99435.75;5064758;28;20255;-77
2022/07/28 03:31:34;;;;;;;8.67;7.87;;;;;;;13.82;100.00;99447.34;5042854;28;20220;-77
2022/07/28 03:34:02;;;;;;;8.53;7.80;;;;;;;13.84;100.00;99439.84;5045053;28;20229;-75
2022/07/28 03:36:35;;;;;;;8.10;7.43;;;;;;;13.88;100.00;99459.00;5042439;28;20229;-76
2022/07/28 03:39:03;;;;;;;7.83;7.23;;;;;;;13.91;100.00;99453.94;5046831;28;20630;-77
2022/07/28 03:41:31;;;;;;;8.60;7.60;;;;;;;13.96;100.00;99453.19;5054603;28;20260;-77
2022/07/28 03:44:01;;;;;;;7.87;7.33;;;;;;;13.98;100.00;99460.00;5045171;28;20237;-77
2022/07/28 03:46:28;;;;;;;8.83;8.13;;;;;;;14.05;100.00;99473.28;5042684;28;20330;-78
2022/07/28 03:48:54;;;;;;;7.80;7.17;;;;;;;14.11;100.00;99473.13;5044112;28;20702;-76
2022/07/28 03:51:24;;;;;;;8.20;7.60;;;;;;;14.15;100.00;99476.13;5043540;28;20265;-77
2022/07/28 03:53:50;;;;;;;8.23;7.53;;;;;;;14.16;100.00;99474.25;5048646;28;20306;-77
2022/07/28 03:56:18;;;;;;;7.63;7.03;;;;;;;14.22;100.00;99481.38;5038353;28;20234;-77
2022/07/28 03:58:44;;;;;;;8.37;7.57;;;;;;;14.23;100.00;99478.41;5046471;28;20232;-76
2022/07/28 04:01:11;;;;;;;8.33;7.57;;;;;;;14.26;100.00;99472.53;5050294;28;20229;-77
2022/07/28 04:03:38;;;;;;;7.73;7.10;;;;;;;14.36;100.00;99490.78;5050814;28;20694;-77
2022/07/28 04:06:13;;;;;;;7.40;6.83;;;;;;;14.40;100.00;99491.91;5052316;28;20230;-76
2022/07/28 04:08:41;;;;;;;7.53;6.93;;;;;;;14.47;100.00;99490.66;5052629;28;20234;-77
2022/07/28 04:11:07;;;;;;;7.93;7.13;;;;;;;14.53;100.00;99496.94;5052523;28;20246;-77
2022/07/28 04:13:35;;;;;;;7.80;7.20;;;;;;;14.58;100.00;99510.50;5048784;28;20337;-77
2022/07/28 04:16:04;;;;;;;7.93;7.10;;;;;;;14.72;100.00;99503.69;5048117;28;20234;-76
2022/07/28 04:18:30;;;;;;;8.20;7.40;;;;;;;14.77;100.00;99505.63;5048520;28;20226;-76
2022/07/28 04:20:57;;;;;;;7.60;7.00;;;;;;;14.91;100.00;99505.00;5052279;28;20283;-76
2022/07/28 04:23:24;;;;;;;7.47;6.90;;;;;;;15.02;100.00;99494.34;5044216;28;20230;-77
2022/07/28 04:25:51;;;;;;;7.70;7.00;;;;;;;15.12;100.00;99497.97;5051647;28;20593;-77
2022/07/28 04:28:17;;;;;;;7.70;7.07;;;;;;;15.22;100.00;99500.78;5048005;28;20672;-76
2022/07/28 04:30:44;;;;;;;7.63;6.97;;;;;;;15.38;100.00;99507.16;5048005;28;20236;-76
2022/07/28 04:33:11;;;;;;;6.97;6.47;;;;;;;15.49;100.00;99505.41;5046655;28;20236;-76
2022/07/28 04:35:38;;;;;;;7.07;6.37;;;;;;;15.68;100.00;99502.09;5049952;28;20320;-76
2022/07/28 04:38:05;;;;;;;7.10;6.40;;;;;;;15.90;100.00;99504.75;5051449;28;20236;-76
2022/07/28 04:40:33;;;;;;;6.37;5.77;;;;;;;16.05;100.00;99499.44;5052188;28;20230;-78
2022/07/28 04:43:00;;;;;;;6.90;6.30;;;;;;;16.23;100.00;99500.97;5047763;28;20238;-76
2022/07/28 04:45:26;;;;;;;6.17;5.67;;;;;;;16.47;100.00;99509.50;5048327;28;20237;-77
2022/07/28 04:47:53;;;;;;;6.20;5.70;;;;;;;16.66;100.00;99508.81;5051817;28;20947;-76
2022/07/28 04:50:20;;;;;;;6.67;5.77;;;;;;;16.88;100.00;99514.09;5047228;28;20236;-77
2022/07/28 04:52:56;;;;;;;7.73;5.60;;;;;;;17.05;100.00;99516.59;5051889;28;20304;-77
2022/07/28 04:55:22;;;;;;;6.13;5.27;;;;;;;17.27;100.00;99521.81;5048946;28;20230;-77
2022/07/28 04:57:49;;;;;;;7.77;5.70;;;;;;;17.29;100.00;99525.91;5050652;28;20271;-76
2022/07/28 05:00:16;;;;;;;5.50;5.03;;;;;;;17.46;100.00;99533.78;5051087;28;20236;-76
2022/07/28 05:02:44;;;;;;;6.93;5.20;;;;;;;17.74;100.00;99525.22;5051742;28;20237;-78
2022/07/28 05:05:11;;;;;;;5.60;4.90;;;;;;;17.99;100.00;99530.69;5048995;28;20275;-77
2022/07/28 05:07:38;;;;;;;5.67;5.07;;;;;;;18.19;100.00;99529.06;5046375;28;20233;-78
2022/07/28 05:10:06;;;;;;;5.53;4.97;;;;;;;18.44;100.00;99532.56;5048523;28;20261;-77
2022/07/28 05:12:33;;;;;;;5.83;4.50;;;;;;;18.62;100.00;99530.38;5048661;28;20248;-81
2022/07/28 05:14:59;;;;;;;5.43;4.67;;;;;;;18.74;100.00;99525.50;5051825;28;20250;-79
2022/07/28 05:17:26;;;;;;;5.37;4.87;;;;;;;18.82;100.00;99527.63;5047377;28;20322;-78
2022/07/28 05:19:52;;;;;;;5.10;4.60;;;;;;;18.82;100.00;99523.00;5049483;28;20262;-78
2022/07/28 05:22:19;;;;;;;5.50;4.43;;;;;;;18.86;100.00;99520.56;5049648;28;20705;-78
2022/07/28 05:24:46;;;;;;;4.30;3.90;;;;;;;18.79;100.00;99528.19;5051253;28;20235;-78
2022/07/28 05:27:12;;;;;;;6.00;4.50;;;;;;;18.73;100.00;99526.56;5046187;28;20236;-78
2022/07/28 05:29:40;;;;;;;5.47;4.50;;;;;;;18.61;100.00;99524.16;5048616;28;20795;-78
2022/07/28 05:32:14;;;;;;;4.80;4.30;;;;;;;18.61;100.00;99537.75;5050937;28;20727;-79
2022/07/28 05:34:43;;;;;;;6.40;4.07;;;;;;;18.84;100.00;99533.59;5051023;28;20250;-78
2022/07/28 05:37:10;;;;;;;6.57;4.20;;;;;;;18.90;100.00;99521.63;5047536;28;20233;-78
2022/07/28 05:39:36;;;;;;;5.03;4.07;;;;;;;18.99;100.00;99530.81;5048003;28;20314;-78
2022/07/28 05:42:03;;;;;;;6.03;4.27;;;;;;;19.07;100.00;99530.28;5050654;28;20239;-79
2022/07/28 05:44:30;;;;;;;6.20;4.30;;;;;;;19.09;100.00;99527.25;5048709;28;20247;-79
2022/07/28 05:47:03;;;;;;;8.30;4.10;;;;;;;19.30;100.00;99529.63;5047494;28;20230;-78
2022/07/28 05:49:30;;;;;;;4.53;3.70;;;;;;;19.52;100.00;99534.69;5049526;28;20334;-78
2022/07/28 05:51:56;;;;;;;7.03;4.07;;;;;;;19.73;100.00;99533.50;5050428;28;20265;-78
2022/07/28 05:54:23;;;;;;;4.07;3.67;;;;;;;19.85;100.00;99535.84;5049280;28;20249;-78
2022/07/28 05:56:51;;;;;;;5.40;3.63;;;;;;;19.78;100.00;99530.72;5048102;28;20235;-79
2022/07/28 05:59:18;;;;;;;5.83;3.77;;;;;;;19.80;100.00;99533.16;5048187;28;20334;-79
2022/07/28 06:01:44;;;;;;;5.77;3.80;;;;;;;19.81;100.00;99534.00;5048088;28;20237;-79
2022/07/28 06:04:11;;;;;;;4.97;3.70;;;;;;;19.84;100.00;99538.84;5049035;28;20228;-79
2022/07/28 06:06:55;;;;;;;6.27;3.83;;;;;;;19.92;100.00;99541.00;5049889;28;20233;-78
2022/07/28 06:09:21;;;;;;;4.10;3.63;;;;;;;19.88;100.00;99542.63;5050701;28;20228;-78
2022/07/28 06:11:49;;;;;;;5.00;3.30;;;;;;;19.88;100.00;99546.16;5047551;28;20329;-79
2022/07/28 06:14:16;;;;;;;6.23;4.10;;;;;;;19.88;100.00;99537.19;5049174;28;20325;-78
2022/07/28 06:16:43;;;;;;;5.57;3.70;;;;;;;20.02;100.00;99536.28;5048857;28;20227;-79
2022/07/28 06:19:10;;;;;;;6.53;3.67;;;;;;;20.19;100.00;99542.13;5050421;28;20237;-78
2022/07/28 06:21:37;;;;;;;5.60;3.60;;;;;;;20.27;100.00;99543.41;5049174;28;20235;-80
2022/07/28 06:24:04;;;;;;;5.63;3.70;;;;;;;20.40;100.00;99547.41;5048905;28;20240;-79
2022/07/28 06:26:30;;;;;;;5.73;3.50;;;;;;;20.81;100.00;99548.63;5048830;28;20270;-79
2022/07/28 06:28:57;;;;;;;5.50;3.57;;;;;;;21.06;100.00;99548.38;5050409;28;20235;-78
2022/07/28 06:31:24;;;;;;;6.97;3.43;;;;;;;21.16;100.00;99542.03;5045079;28;20247;-78
2022/07/28 06:33:50;;;;;;;4.23;3.80;;;;;;;21.10;100.00;99537.69;5044540;28;20594;-78
2022/07/28 06:36:17;;;;;;;4.50;4.00;;;;;;;21.35;100.00;99533.88;5050177;28;20314;-78
2022/07/28 06:38:44;;;;;;;4.50;3.70;;;;;;;21.77;100.00;99533.84;5047162;28;20239;-78
2022/07/28 06:41:10;;;;;;;5.90;3.70;;;;;;;21.60;100.00;99530.03;5050216;28;20708;-79
2022/07/28 06:43:37;;;;;;;4.83;3.63;;;;;;;21.74;100.00;99531.69;5050177;28;20237;-79
2022/07/28 06:46:05;;;;;;;4.47;3.75;;;;;;;22.15;100.00;99531.94;5047122;28;20332;-78
2022/07/28 06:48:32;;;;;;;4.83;3.47;;;;;;;22.22;95.58;99537.78;5047383;28;20228;-78
2022/07/28 06:50:59;;;;;;;4.00;3.63;;;;;;;22.31;93.33;99532.47;5049729;28;20259;-78
2022/07/28 06:53:26;;;;;;;4.20;3.40;;;;;;;22.17;96.04;99540.59;5048901;28;20233;-78
2022/07/28 06:55:57;;;;;;;4.80;3.30;;;;;;;22.15;98.89;99539.28;5049911;28;20228;-79
2022/07/28 06:58:24;;;;;;;5.83;3.73;;;;;;;22.18;95.21;99536.78;5049395;28;20236;-78
2022/07/28 07:00:51;;;;;;;6.13;3.90;;;;;;;22.13;95.45;99538.78;5049766;28;20246;-78
2022/07/28 07:03:17;;;;;;;4.90;3.57;;;;;;;22.14;98.19;99538.47;5048631;28;20236;-78
2022/07/28 07:05:44;;;;;;;4.27;3.87;;;;;;;21.74;100.00;99531.69;5048885;28;20263;-79
2022/07/28 07:08:14;;;;;;;4.23;3.80;;;;;;;21.64;99.09;99526.41;5049527;28;20227;-79
2022/07/28 07:10:41;;;;;;;5.80;3.80;;;;;;;21.60;100.00;99521.84;5050110;28;20327;-80
2022/07/28 07:13:07;;;;;;;5.53;3.83;;;;;;;21.87;95.97;99527.44;5050079;28;20239;-78
2022/07/28 07:15:39;;;;;;;5.57;4.07;;;;;;;22.12;98.10;99529.78;5046555;28;20235;-78
2022/07/28 07:18:05;;;;;;;5.30;3.67;;;;;;;22.59;94.92;99525.16;5047927;28;20729;-78
2022/07/28 07:20:32;;;;;;;5.00;3.90;;;;;;;22.89;87.88;99530.09;5048569;28;20263;-78
2022/07/28 07:22:59;;;;;;;5.22;3.90;;;;;;;23.02;85.86;99521.06;5049543;28;20221;-79
2022/07/28 07:25:25;;;;;;;4.43;3.88;;;;;;;23.14;82.86;99517.84;5049312;28;20236;-79
2022/07/28 07:27:52;;;;;;;4.30;3.90;;;;;;;22.91;87.75;99524.31;5048557;28;20229;-79
2022/07/28 07:30:19;;;;;;;4.70;3.95;;;;;;;22.93;84.54;99524.81;5047969;28;20702;-78
2022/07/28 07:32:45;;;;;;;5.85;3.90;;;;;;;23.00;86.28;99520.59;5049078;28;20229;-79
2022/07/28 07:35:12;;;;;;;7.68;3.90;;;;;;;23.00;87.53;99508.84;5048579;28;20233;-78
2022/07/28 07:37:39;;;;;;;5.38;4.35;;;;;;;23.07;84.91;99515.50;5049619;28;20775;-80
2022/07/28 07:40:07;;;;;;;7.03;3.95;;;;;;;23.21;85.09;99521.78;5049069;28;20264;-80
2022/07/28 07:42:33;;;;;;;5.38;4.20;;;;;;;23.52;83.88;99519.22;5032040;28;20722;-79
2022/07/28 07:45:04;;;;;;;5.00;4.28;;;;;;;23.98;76.34;99518.97;5048177;28;20260;-81
2022/07/28 07:47:30;;;;;;;7.15;4.18;;;;;;;24.52;74.12;99519.84;5048493;28;20243;-79
2022/07/28 07:49:57;;;;;;;5.38;3.90;;;;;;;24.85;68.08;99518.41;5049486;28;20259;-82
2022/07/28 07:52:27;;;;;;;6.38;4.65;;;;;;;25.04;64.65;99507.22;5044665;28;20237;-81
2022/07/28 07:54:53;;;;;;;5.13;4.18;;;;;;;24.79;66.12;99500.47;5046502;28;20226;-81
2022/07/28 07:57:20;;;;;;;4.68;4.20;;;;;;;24.88;67.47;99500.53;5042985;28;20352;-80
2022/07/28 07:59:47;;;;;;;7.65;4.63;;;;;;;25.08;66.89;99501.91;5042963;28;20308;-82
2022/07/28 08:02:13;;;;;;;7.00;4.50;;;;;;;25.24;64.50;99498.38;5050203;28;20231;-81
2022/07/28 08:04:40;;;;;;;6.03;4.22;;;;;;;25.06;69.37;99498.66;5045759;28;20223;-79
2022/07/28 08:07:08;;;;;;;5.80;4.65;;;;;;;25.25;67.35;99500.00;5050022;28;20782;-81
2022/07/28 08:09:36;;;;;;;5.32;4.72;;;;;;;25.24;63.44;99498.38;5048614;28;20267;-80
2022/07/28 08:12:03;;;;;;;5.63;4.05;;;;;;;25.56;64.23;99494.44;5047605;28;20237;-81
2022/07/28 08:14:29;;;;;;;5.68;4.50;;;;;;;25.25;64.85;99496.44;5046757;28;20233;-80
2022/07/28 08:16:58;;;;;;;6.65;4.10;;;;;;;25.44;66.66;99496.97;5049333;28;20235;-81
2022/07/28 08:19:25;;;;;;;5.50;4.50;;;;;;;25.27;63.57;99485.97;5049117;28;20317;-80
2022/07/28 08:21:52;;;;;;;5.45;4.93;;;;;;;24.90;66.75;99479.94;5047667;28;20221;-81
2022/07/28 08:24:18;;;;;;;5.60;4.70;;;;;;;24.68;69.80;99482.72;5047384;28;20714;-80
2022/07/28 08:27:00;;;;;;;6.82;4.80;;;;;;;24.43;71.76;99480.66;5049153;28;20245;-79
2022/07/28 08:29:27;;;;;;;6.97;4.95;;;;;;;24.36;71.97;99472.06;5047874;28;20752;-81
2022/07/28 08:31:54;;;;;;;8.50;4.35;;;;;;;24.26;78.79;99461.41;5049358;28;20283;-81
2022/07/28 08:34:20;;;;;;;7.15;5.05;;;;;;;23.80;81.77;99475.38;5047067;28;20315;-78
2022/07/28 08:37:00;;;;;;;5.70;4.45;;;;;;;24.13;84.92;99466.59;5048913;28;20234;-78
2022/07/28 08:39:27;;;;;;;5.78;4.90;;;;;;;23.91;83.03;99463.88;5049440;28;20258;-78
2022/07/28 08:41:58;;;;;;;6.55;5.30;;;;;;;23.83;82.50;99461.09;5051496;28;20629;-79
2022/07/28 08:44:38;;;;;;;7.55;4.60;;;;;;;23.92;81.78;99464.69;5049765;28;20770;-78
2022/07/28 08:47:08;;;;;;;6.03;5.30;;;;;;;23.65;81.82;99471.09;5050361;28;20269;-81
2022/07/28 08:49:38;;;;;;;8.30;5.60;;;;;;;23.76;78.72;99469.72;5051474;28;20305;-79
2022/07/28 08:52:09;;;;;;;5.75;5.10;;;;;;;23.80;78.46;99473.44;5049811;28;20708;-79
2022/07/28 08:54:41;;;;;;;5.55;5.00;;;;;;;23.88;78.80;99467.25;5044083;28;20234;-81
2022/07/28 08:57:09;;;;;;;6.78;5.47;;;;;;;24.05;76.47;99463.81;5047175;28;20245;-78
2022/07/28 08:59:37;;;;;;;6.07;4.82;;;;;;;24.19;76.60;99463.75;5026343;28;20328;-79
2022/07/28 09:02:04;;;;;;;7.53;4.63;;;;;;;24.39;82.21;99468.72;5041247;28;20226;-78
2022/07/28 09:04:33;;;;;;;5.80;5.10;;;;;;;24.46;69.17;99464.41;5045367;28;20229;-78
2022/07/28 09:06:59;;;;;;;7.90;5.25;;;;;;;24.61;72.44;99463.19;5042837;28;20231;-81
2022/07/28 09:09:26;;;;;;;6.10;5.55;;;;;;;24.64;75.52;99461.72;5049946;28;20229;-79
2022/07/28 09:11:53;;;;;;;5.90;5.30;;;;;;;24.60;72.86;99466.22;5048305;28;20256;-79
2022/07/28 09:14:19;;;;;;;7.10;5.88;;;;;;;24.57;73.74;99464.94;5045093;28;20259;-79
2022/07/28 09:16:46;;;;;;;6.95;5.40;;;;;;;24.86;72.51;99464.41;5047358;28;20319;-79
2022/07/28 09:19:12;;;;;;;6.43;5.68;;;;;;;24.76;74.96;99465.50;5050089;28;20229;-79
2022/07/28 09:21:40;;;;;;;6.75;6.05;;;;;;;24.69;70.69;99470.63;5044512;28;20250;-79
2022/07/28 09:24:07;;;;;;;8.20;6.00;;;;;;;24.81;71.36;99459.88;5044636;28;20265;-79
2022/07/28 09:26:34;;;;;;;5.82;5.32;;;;;;;24.79;72.75;99469.53;5041332;28;20277;-79
2022/07/28 09:29:02;;;;;;;8.38;7.50;;;;;;;24.96;69.11;99473.16;5041070;28;20317;-79
2022/07/28 09:31:29;;;;;;;6.93;6.25;;;;;;;25.20;71.24;99472.72;5041765;28;20228;-79
2022/07/28 09:34:01;;;;;;;7.90;7.07;;;;;;;25.25;67.41;99475.31;5044689;28;20252;-79
2022/07/28 09:36:29;;;;;;;8.75;6.65;;;;;;;25.49;70.10;99477.63;5039213;28;20240;-80
2022/07/28 09:38:56;;;;;;;9.05;7.78;;;;;;;25.65;67.22;99478.81;5044891;28;20233;-79
2022/07/28 09:41:23;;;;;;;7.82;7.05;;;;;;;25.88;64.09;99476.69;5045530;28;20730;-79
2022/07/28 09:43:51;;;;;;;8.15;7.18;;;;;;;26.11;64.64;99472.63;5048680;28;20316;-79
2022/07/28 09:46:23;;;;;;;8.07;7.38;;;;;;;26.01;66.60;99464.72;5044111;28;20237;-80
2022/07/28 09:48:58;;;;;;;9.13;6.82;;;;;;;25.86;64.93;99463.28;5044441;28;20296;-79
2022/07/28 09:51:27;;;;;;;7.60;6.90;;;;;;;26.00;67.36;99462.28;5063122;28;20282;-78
2022/07/28 09:54:05;;;;;;;7.45;6.55;;;;;;;26.44;61.05;99459.16;5048259;28;20323;-79
2022/07/28 09:56:32;;;;;;;8.13;6.50;;;;;;;26.75;58.63;99456.13;5044961;28;20335;-81
2022/07/28 09:58:59;;;;;;;5.78;5.13;;;;;;;27.05;60.62;99454.22;5045740;28;20258;-80
2022/07/28 10:01:27;;;;;;;6.60;5.85;;;;;;;27.40;55.68;99446.53;5044080;28;20290;-79
2022/07/28 10:04:02;;;;;;;10.25;6.35;;;;;;;27.35;55.16;99449.47;5045069;28;20228;-79
2022/07/28 10:06:31;;;;;;;6.72;5.28;;;;;;;27.67;55.22;99445.25;5048254;28;20719;-79
2022/07/28 10:09:04;;;;;;;6.57;5.90;;;;;;;28.25;51.68;99446.94;5043854;28;20262;-80
2022/07/28 10:11:31;;;;;;;6.43;5.78;;;;;;;28.53;49.47;99436.88;5049496;28;20233;-80
2022/07/28 10:14:05;;;;;;;5.95;5.43;;;;;;;28.93;47.23;99428.75;5043029;28;20234;-79
2022/07/28 10:16:43;;;;;;;6.22;5.72;;;;;;;28.80;49.47;99432.69;5048593;28;20316;-79
2022/07/28 10:19:09;;;;;;;6.43;5.85;;;;;;;28.70;49.91;99425.63;5043859;28;20225;-79
2022/07/28 10:21:43;;;;;;;5.90;4.72;;;;;;;29.08;49.26;99425.31;5044688;28;20230;-79
2022/07/28 10:24:13;;;;;;;6.63;5.32;;;;;;;29.03;47.87;99419.22;5046792;28;20673;-80
2022/07/28 10:26:44;;;;;;;7.43;4.30;;;;;;;29.37;45.58;99418.72;5044360;28;20225;-79
2022/07/28 10:29:15;;;;;;;5.05;4.30;;;;;;;29.90;44.41;99412.00;5043563;28;20226;-79
2022/07/28 10:31:57;;;;;;;6.97;5.55;;;;;;;28.45;49.41;99404.75;5046200;28;20279;-79
2022/07/28 10:34:34;;;;;;;6.65;4.70;;;;;;;29.18;49.13;99408.28;5044253;28;20252;-79
2022/07/28 10:37:09;;;;;;;5.90;4.47;;;;;;;29.40;45.83;99401.47;5046322;28;20218;-79
2022/07/28 10:39:40;;;;;;;6.15;4.55;;;;;;;29.08;44.13;99399.66;5049266;28;20286;-79
2022/07/28 10:42:09;;;;;;;4.63;4.20;;;;;;;28.91;44.27;99403.50;5038673;28;20237;-79
2022/07/28 10:44:37;;;;;;;4.30;3.90;;;;;;;28.83;46.57;99396.16;5045990;28;20257;-78
2022/07/28 10:47:08;;;;;;;4.10;3.70;;;;;;;28.85;43.48;99396.59;5046863;28;20321;-81
2022/07/28 10:49:44;;;;;;;4.32;3.50;;;;;;;28.74;44.26;99398.25;5044130;28;20637;-80
2022/07/28 10:52:18;;;;;;;4.10;3.80;;;;;;;28.76;42.99;99393.97;5043137;28;20238;-80
2022/07/28 10:55:27;;;;;;;4.20;3.72;;;;;;;28.91;42.65;99388.91;5046487;28;20237;-79
2022/07/28 10:58:50;;;;;;;4.63;3.80;;;;;;;28.77;42.08;99383.75;5043160;28;20255;-80
2022/07/28 11:01:43;;;;;;;5.20;3.90;;;;;;;28.85;43.56;99388.34;4975277;28;20279;-78
2022/07/28 11:04:47;;;;;;;5.65;4.38;;;;;;;28.77;42.96;99375.47;4986915;28;20314;-79
2022/07/28 11:07:16;;;;;;;5.38;4.32;;;;;;;28.64;44.13;99377.41;5044170;28;20296;-79
2022/07/28 11:09:46;;;;;;;4.53;4.13;;;;;;;28.49;46.89;99380.06;5032095;28;20312;-78
2022/07/28 11:12:14;;;;;;;4.35;3.72;;;;;;;28.37;49.95;99378.09;5044863;28;20304;-78
2022/07/28 11:14:42;;;;;;;4.47;3.90;;;;;;;28.52;47.55;99379.34;5047076;28;20231;-80
2022/07/28 11:17:09;;;;;;;5.88;4.60;;;;;;;28.59;44.88;99377.66;5045790;28;20237;-78
2022/07/28 11:19:36;;;;;;;4.20;3.78;;;;;;;29.19;44.87;99379.53;5048177;28;20229;-81
2022/07/28 11:22:28;;;;;;;4.70;4.30;;;;;;;29.34;43.36;99372.53;5046088;28;20240;-81
2022/07/28 11:25:01;;;;;;;4.55;3.60;;;;;;;29.38;41.68;99367.91;5045201;28;20269;-79
2022/07/28 11:27:53;;;;;;;4.43;3.30;;;;;;;29.03;43.01;99358.53;5047145;28;20233;-80
2022/07/28 11:30:32;;;;;;;4.88;3.60;;;;;;;28.49;43.13;99355.25;5046067;28;20260;-81
2022/07/28 11:32:59;;;;;;;4.05;3.75;;;;;;;28.39;44.09;99353.75;5049496;28;20283;-82
2022/07/28 11:35:27;;;;;;;5.72;3.70;;;;;;;28.32;43.83;99348.03;5049017;28;20313;-81
2022/07/28 11:38:00;;;;;;;4.00;3.60;;;;;;;28.43;45.21;99355.47;5049952;28;20233;-79
2022/07/28 11:40:30;;;;;;;4.45;4.05;;;;;;;28.69;43.37;99348.81;5052834;28;20233;-81
2022/07/28 11:43:30;;;;;;;4.88;3.80;;;;;;;29.02;45.44;99356.97;5048556;28;20595;-78